Terminal Aerodrome Forecast
Issued by NWS

Home | Current Version | Previous Version | Text Only | Print | Product List | Glossary Off
Versions: 1 2 3 4 5 6 7 8 9 10 11 12 13 14 15 16

780
FTUS42 KMHX 290908 AAA
TAFPGV
TAF AMD
KPGV 290908Z 2909/3006 00000KT P6SM SKC
     FM291200 02006KT P6SM BKN008
     FM291500 04010KT P6SM BKN015
     FM291700 04010KT P6SM SCT025
      AMD LTD TO CLD VIS AND WIND=

USA.gov is the U.S. government's official web portal to all federal, state and local government web resources and services.